sensor_id;sensor_type;location;lat;lon;timestamp;pressure;altitude;pressure_sealevel;temperature;humidity
52949;BME280;38812;50.942;3.644;2023-06-26T00:01:11;101411.56;;;20.64;100.00
52949;BME280;38812;50.942;3.644;2023-06-26T00:03:36;101415.78;;;20.52;100.00
52949;BME280;38812;50.942;3.644;2023-06-26T00:06:02;101414.28;;;20.47;100.00
52949;BME280;38812;50.942;3.644;2023-06-26T00:08:28;101382.91;;;20.17;100.00
52949;BME280;38812;50.942;3.644;2023-06-26T00:10:53;101396.78;;;20.24;100.00
52949;BME280;38812;50.942;3.644;2023-06-26T00:13:19;101409.50;;;20.19;100.00
52949;BME280;38812;50.942;3.644;2023-06-26T00:15:45;101396.50;;;20.13;100.00
52949;BME280;38812;50.942;3.644;2023-06-26T00:18:10;101412.56;;;20.11;100.00
52949;BME280;38812;50.942;3.644;2023-06-26T00:20:36;101393.72;;;19.97;100.00
52949;BME280;38812;50.942;3.644;2023-06-26T00:23:01;101405.69;;;19.90;100.00
52949;BME280;38812;50.942;3.644;2023-06-26T00:25:29;101389.19;;;19.82;100.00
52949;BME280;38812;50.942;3.644;2023-06-26T00:27:54;101405.84;;;19.87;100.00
52949;BME280;38812;50.942;3.644;2023-06-26T00:30:20;101400.00;;;19.79;100.00
52949;BME280;38812;50.942;3.644;2023-06-26T00:32:45;101420.88;;;19.88;100.00
52949;BME280;38812;50.942;3.644;2023-06-26T00:35:10;101416.50;;;19.87;100.00
52949;BME280;38812;50.942;3.644;2023-06-26T00:37:36;101423.22;;;19.94;100.00
52949;BME280;38812;50.942;3.644;2023-06-26T00:40:01;101407.56;;;19.88;100.00
52949;BME280;38812;50.942;3.644;2023-06-26T00:42:27;101421.13;;;20.01;100.00
52949;BME280;38812;50.942;3.644;2023-06-26T00:44:52;101423.25;;;20.11;100.00
52949;BME280;38812;50.942;3.644;2023-06-26T00:47:18;101429.75;;;20.06;100.00
52949;BME280;38812;50.942;3.644;2023-06-26T00:49:43;101423.78;;;20.01;100.00
52949;BME280;38812;50.942;3.644;2023-06-26T00:52:09;101406.44;;;19.92;100.00
52949;BME280;38812;50.942;3.644;2023-06-26T00:54:34;101425.81;;;19.96;100.00
52949;BME280;38812;50.942;3.644;2023-06-26T00:57:00;101418.31;;;19.87;100.00
52949;BME280;38812;50.942;3.644;2023-06-26T00:59:25;101413.34;;;19.96;100.00
52949;BME280;38812;50.942;3.644;2023-06-26T01:01:51;101416.81;;;19.81;100.00
52949;BME280;38812;50.942;3.644;2023-06-26T01:04:16;101415.16;;;19.78;100.00
52949;BME280;38812;50.942;3.644;2023-06-26T01:06:46;101428.03;;;19.88;100.00
52949;BME280;38812;50.942;3.644;2023-06-26T01:09:21;101433.09;;;19.92;100.00
52949;BME280;38812;50.942;3.644;2023-06-26T01:11:47;101439.38;;;19.74;100.00
52949;BME280;38812;50.942;3.644;2023-06-26T01:14:13;101446.91;;;19.66;100.00
52949;BME280;38812;50.942;3.644;2023-06-26T01:16:39;101442.44;;;19.66;100.00
52949;BME280;38812;50.942;3.644;2023-06-26T01:19:23;101441.28;;;19.53;100.00
52949;BME280;38812;50.942;3.644;2023-06-26T01:21:58;101443.31;;;19.48;100.00
52949;BME280;38812;50.942;3.644;2023-06-26T01:24:32;101433.94;;;19.39;100.00
52949;BME280;38812;50.942;3.644;2023-06-26T01:26:59;101432.63;;;19.29;100.00
52949;BME280;38812;50.942;3.644;2023-06-26T01:29:26;101444.88;;;19.33;100.00
52949;BME280;38812;50.942;3.644;2023-06-26T01:31:53;101438.72;;;19.14;100.00
52949;BME280;38812;50.942;3.644;2023-06-26T01:34:19;101421.00;;;19.13;100.00
52949;BME280;38812;50.942;3.644;2023-06-26T01:36:45;101434.81;;;19.21;100.00
52949;BME280;38812;50.942;3.644;2023-06-26T01:39:18;101436.97;;;19.13;100.00
52949;BME280;38812;50.942;3.644;2023-06-26T01:41:44;101456.28;;;19.18;100.00
52949;BME280;38812;50.942;3.644;2023-06-26T01:44:31;101456.41;;;19.15;100.00
52949;BME280;38812;50.942;3.644;2023-06-26T01:47:02;101462.97;;;19.27;100.00
52949;BME280;38812;50.942;3.644;2023-06-26T01:57:21;101455.69;;;18.93;100.00
52949;BME280;38812;50.942;3.644;2023-06-26T01:59:48;101468.34;;;18.88;100.00
52949;BME280;38812;50.942;3.644;2023-06-26T02:02:14;101465.09;;;18.81;100.00
52949;BME280;38812;50.942;3.644;2023-06-26T02:04:40;101472.91;;;18.65;100.00
52949;BME280;38812;50.942;3.644;2023-06-26T02:07:05;101487.81;;;18.69;100.00
52949;BME280;38812;50.942;3.644;2023-06-26T02:09:31;101486.88;;;18.70;100.00
52949;BME280;38812;50.942;3.644;2023-06-26T02:11:56;101499.09;;;18.54;100.00
52949;BME280;38812;50.942;3.644;2023-06-26T02:14:21;101494.72;;;18.53;100.00
52949;BME280;38812;50.942;3.644;2023-06-26T02:16:47;101489.03;;;18.40;100.00
52949;BME280;38812;50.942;3.644;2023-06-26T02:19:12;101484.88;;;18.35;100.00
52949;BME280;38812;50.942;3.644;2023-06-26T02:21:38;101479.00;;;18.27;100.00
52949;BME280;38812;50.942;3.644;2023-06-26T02:24:04;101488.16;;;18.20;100.00
52949;BME280;38812;50.942;3.644;2023-06-26T02:26:30;101482.69;;;18.02;100.00
52949;BME280;38812;50.942;3.644;2023-06-26T02:28:55;101503.25;;;18.19;100.00
52949;BME280;38812;50.942;3.644;2023-06-26T02:31:21;101508.66;;;18.18;100.00
52949;BME280;38812;50.942;3.644;2023-06-26T02:33:46;101502.84;;;18.08;100.00
52949;BME280;38812;50.942;3.644;2023-06-26T02:36:11;101493.16;;;17.85;100.00
52949;BME280;38812;50.942;3.644;2023-06-26T02:38:37;101492.25;;;17.86;100.00
52949;BME280;38812;50.942;3.644;2023-06-26T02:41:02;101493.06;;;17.88;100.00
52949;BME280;38812;50.942;3.644;2023-06-26T02:43:28;101485.66;;;17.74;100.00
52949;BME280;38812;50.942;3.644;2023-06-26T02:45:53;101516.91;;;17.90;100.00
52949;BME280;38812;50.942;3.644;2023-06-26T02:48:18;101507.78;;;17.75;100.00
52949;BME280;38812;50.942;3.644;2023-06-26T02:50:44;101526.22;;;17.78;100.00
52949;BME280;38812;50.942;3.644;2023-06-26T02:53:12;101504.59;;;17.65;100.00
52949;BME280;38812;50.942;3.644;2023-06-26T02:55:37;101508.34;;;17.60;100.00
52949;BME280;38812;50.942;3.644;2023-06-26T02:58:02;101525.09;;;17.62;100.00
52949;BME280;38812;50.942;3.644;2023-06-26T03:00:28;101514.69;;;17.56;100.00
52949;BME280;38812;50.942;3.644;2023-06-26T03:02:55;101516.97;;;17.43;100.00
52949;BME280;38812;50.942;3.644;2023-06-26T03:05:20;101526.16;;;17.34;100.00
52949;BME280;38812;50.942;3.644;2023-06-26T03:07:46;101538.81;;;17.51;100.00
52949;BME280;38812;50.942;3.644;2023-06-26T03:10:12;101543.16;;;17.30;100.00
52949;BME280;38812;50.942;3.644;2023-06-26T03:12:37;101539.78;;;17.25;100.00
52949;BME280;38812;50.942;3.644;2023-06-26T03:15:03;101535.41;;;17.24;100.00
52949;BME280;38812;50.942;3.644;2023-06-26T03:17:28;101530.53;;;17.12;100.00
52949;BME280;38812;50.942;3.644;2023-06-26T03:19:53;101541.31;;;17.09;100.00
52949;BME280;38812;50.942;3.644;2023-06-26T03:22:19;101530.94;;;17.01;100.00
52949;BME280;38812;50.942;3.644;2023-06-26T03:24:44;101526.28;;;16.85;100.00
52949;BME280;38812;50.942;3.644;2023-06-26T03:27:11;101548.78;;;16.98;100.00
52949;BME280;38812;50.942;3.644;2023-06-26T03:29:37;101550.72;;;16.93;100.00
52949;BME280;38812;50.942;3.644;2023-06-26T03:32:02;101538.72;;;16.83;100.00
52949;BME280;38812;50.942;3.644;2023-06-26T03:34:28;101523.28;;;16.69;100.00
52949;BME280;38812;50.942;3.644;2023-06-26T03:36:53;101539.53;;;16.85;100.00
52949;BME280;38812;50.942;3.644;2023-06-26T03:39:18;101542.28;;;16.82;100.00
52949;BME280;38812;50.942;3.644;2023-06-26T03:41:44;101540.63;;;16.79;100.00
52949;BME280;38812;50.942;3.644;2023-06-26T03:44:09;101557.75;;;16.94;100.00
52949;BME280;38812;50.942;3.644;2023-06-26T03:46:35;101560.16;;;16.76;100.00
52949;BME280;38812;50.942;3.644;2023-06-26T03:49:00;101558.31;;;16.78;100.00
52949;BME280;38812;50.942;3.644;2023-06-26T03:51:25;101553.56;;;16.63;100.00
52949;BME280;38812;50.942;3.644;2023-06-26T03:53:51;101572.94;;;16.65;100.00
52949;BME280;38812;50.942;3.644;2023-06-26T03:56:16;101578.31;;;16.62;100.00
52949;BME280;38812;50.942;3.644;2023-06-26T03:58:42;101588.06;;;16.62;100.00
52949;BME280;38812;50.942;3.644;2023-06-26T04:01:07;101585.66;;;16.54;100.00
52949;BME280;38812;50.942;3.644;2023-06-26T04:03:33;101590.91;;;16.56;100.00
52949;BME280;38812;50.942;3.644;2023-06-26T04:05:59;101590.88;;;16.57;100.00
52949;BME280;38812;50.942;3.644;2023-06-26T04:08:24;101574.44;;;16.46;100.00
52949;BME280;38812;50.942;3.644;2023-06-26T04:10:52;101588.28;;;16.56;100.00
52949;BME280;38812;50.942;3.644;2023-06-26T04:13:18;101596.19;;;16.57;100.00
52949;BME280;38812;50.942;3.644;2023-06-26T04:15:44;101607.66;;;16.58;100.00
52949;BME280;38812;50.942;3.644;2023-06-26T04:18:09;101606.34;;;16.71;100.00
52949;BME280;38812;50.942;3.644;2023-06-26T04:21:10;101607.69;;;16.56;100.00
52949;BME280;38812;50.942;3.644;2023-06-26T04:23:37;101594.53;;;16.53;100.00
52949;BME280;38812;50.942;3.644;2023-06-26T04:26:04;101606.53;;;16.66;100.00
52949;BME280;38812;50.942;3.644;2023-06-26T04:28:31;101607.44;;;16.65;100.00
52949;BME280;38812;50.942;3.644;2023-06-26T04:30:56;101610.16;;;16.62;100.00
52949;BME280;38812;50.942;3.644;2023-06-26T04:33:22;101614.19;;;16.74;100.00
52949;BME280;38812;50.942;3.644;2023-06-26T04:35:48;101613.53;;;16.67;100.00
52949;BME280;38812;50.942;3.644;2023-06-26T04:38:14;101625.78;;;16.71;100.00
52949;BME280;38812;50.942;3.644;2023-06-26T04:40:40;101620.47;;;16.71;100.00
52949;BME280;38812;50.942;3.644;2023-06-26T04:43:06;101611.50;;;16.75;100.00
52949;BME280;38812;50.942;3.644;2023-06-26T04:45:31;101623.75;;;16.79;100.00
52949;BME280;38812;50.942;3.644;2023-06-26T04:47:56;101621.19;;;16.76;100.00
52949;BME280;38812;50.942;3.644;2023-06-26T04:50:23;101619.59;;;16.71;100.00
52949;BME280;38812;50.942;3.644;2023-06-26T04:52:48;101626.50;;;16.76;100.00
52949;BME280;38812;50.942;3.644;2023-06-26T04:55:13;101627.22;;;16.82;100.00
52949;BME280;38812;50.942;3.644;2023-06-26T04:57:39;101630.69;;;16.84;100.00
52949;BME280;38812;50.942;3.644;2023-06-26T05:00:05;101628.63;;;17.17;100.00
52949;BME280;38812;50.942;3.644;2023-06-26T05:02:35;101633.59;;;17.26;100.00
52949;BME280;38812;50.942;3.644;2023-06-26T05:05:00;101639.28;;;17.15;100.00
52949;BME280;38812;50.942;3.644;2023-06-26T05:07:26;101648.88;;;17.44;100.00
52949;BME280;38812;50.942;3.644;2023-06-26T05:09:51;101659.38;;;17.47;100.00
52949;BME280;38812;50.942;3.644;2023-06-26T05:12:16;101653.19;;;17.71;100.00
52949;BME280;38812;50.942;3.644;2023-06-26T05:14:42;101670.13;;;18.59;100.00
52949;BME280;38812;50.942;3.644;2023-06-26T05:17:07;101667.75;;;19.14;100.00
52949;BME280;38812;50.942;3.644;2023-06-26T05:19:32;101664.75;;;19.81;100.00
52949;BME280;38812;50.942;3.644;2023-06-26T05:21:58;101675.56;;;21.05;100.00
52949;BME280;38812;50.942;3.644;2023-06-26T05:24:27;101669.63;;;21.00;100.00
52949;BME280;38812;50.942;3.644;2023-06-26T05:26:52;101655.94;;;21.40;100.00
52949;BME280;38812;50.942;3.644;2023-06-26T05:29:18;101672.41;;;21.48;100.00
52949;BME280;38812;50.942;3.644;2023-06-26T05:31:44;101660.91;;;21.64;100.00
52949;BME280;38812;50.942;3.644;2023-06-26T05:34:12;101670.72;;;22.43;100.00
52949;BME280;38812;50.942;3.644;2023-06-26T05:36:38;101657.13;;;21.83;100.00
52949;BME280;38812;50.942;3.644;2023-06-26T05:39:06;101679.94;;;22.69;100.00
52949;BME280;38812;50.942;3.644;2023-06-26T05:41:32;101686.75;;;23.05;96.65
52949;BME280;38812;50.942;3.644;2023-06-26T05:43:57;101680.44;;;22.60;98.21
52949;BME280;38812;50.942;3.644;2023-06-26T05:46:23;101670.50;;;23.08;90.64
52949;BME280;38812;50.942;3.644;2023-06-26T05:48:48;101660.19;;;23.16;92.44
52949;BME280;38812;50.942;3.644;2023-06-26T05:51:14;101671.44;;;23.07;89.71
52949;BME280;38812;50.942;3.644;2023-06-26T05:53:39;101681.56;;;22.87;91.91
52949;BME280;38812;50.942;3.644;2023-06-26T05:56:05;101688.88;;;23.72;86.71
52949;BME280;38812;50.942;3.644;2023-06-26T05:58:31;101695.13;;;22.84;90.75
52949;BME280;38812;50.942;3.644;2023-06-26T06:00:57;101700.56;;;23.13;90.88
52949;BME280;38812;50.942;3.644;2023-06-26T06:03:22;101708.53;;;23.14;93.06
52949;BME280;38812;50.942;3.644;2023-06-26T06:05:48;101704.13;;;22.52;94.51
52949;BME280;38812;50.942;3.644;2023-06-26T06:08:13;101702.88;;;21.29;100.00
52949;BME280;38812;50.942;3.644;2023-06-26T06:10:39;101711.47;;;20.82;100.00
52949;BME280;38812;50.942;3.644;2023-06-26T06:13:04;101715.31;;;20.76;100.00
52949;BME280;38812;50.942;3.644;2023-06-26T06:15:30;101702.06;;;20.92;100.00
52949;BME280;38812;50.942;3.644;2023-06-26T06:17:55;101694.22;;;20.53;100.00
52949;BME280;38812;50.942;3.644;2023-06-26T06:20:20;101724.00;;;20.63;100.00
52949;BME280;38812;50.942;3.644;2023-06-26T06:22:46;101738.97;;;20.48;100.00
52949;BME280;38812;50.942;3.644;2023-06-26T06:25:14;101729.78;;;20.35;100.00
52949;BME280;38812;50.942;3.644;2023-06-26T06:27:39;101728.34;;;20.46;100.00
52949;BME280;38812;50.942;3.644;2023-06-26T06:30:05;101745.94;;;20.69;100.00
52949;BME280;38812;50.942;3.644;2023-06-26T06:32:30;101738.03;;;20.49;100.00
52949;BME280;38812;50.942;3.644;2023-06-26T06:34:56;101736.41;;;20.26;100.00
52949;BME280;38812;50.942;3.644;2023-06-26T06:37:22;101730.31;;;20.43;100.00
52949;BME280;38812;50.942;3.644;2023-06-26T06:39:47;101740.47;;;20.35;100.00
52949;BME280;38812;50.942;3.644;2023-06-26T06:42:13;101754.91;;;20.49;100.00
52949;BME280;38812;50.942;3.644;2023-06-26T06:44:38;101729.69;;;20.36;100.00
52949;BME280;38812;50.942;3.644;2023-06-26T06:47:04;101749.84;;;20.25;100.00
52949;BME280;38812;50.942;3.644;2023-06-26T06:49:32;101744.09;;;20.52;100.00
52949;BME280;38812;50.942;3.644;2023-06-26T06:51:57;101775.69;;;20.43;100.00
52949;BME280;38812;50.942;3.644;2023-06-26T06:54:26;101764.88;;;20.46;100.00
52949;BME280;38812;50.942;3.644;2023-06-26T06:56:51;101774.38;;;20.70;100.00
52949;BME280;38812;50.942;3.644;2023-06-26T06:59:17;101761.53;;;20.78;100.00
52949;BME280;38812;50.942;3.644;2023-06-26T07:01:42;101769.22;;;21.02;100.00
52949;BME280;38812;50.942;3.644;2023-06-26T07:04:07;101784.66;;;21.14;100.00
52949;BME280;38812;50.942;3.644;2023-06-26T07:06:33;101769.75;;;21.27;100.00
52949;BME280;38812;50.942;3.644;2023-06-26T07:08:59;101783.44;;;21.02;100.00
52949;BME280;38812;50.942;3.644;2023-06-26T07:11:24;101789.19;;;20.95;100.00
52949;BME280;38812;50.942;3.644;2023-06-26T07:13:50;101762.53;;;20.76;100.00
52949;BME280;38812;50.942;3.644;2023-06-26T07:16:15;101779.44;;;20.94;100.00
52949;BME280;38812;50.942;3.644;2023-06-26T07:18:41;101770.88;;;21.04;100.00
52949;BME280;38812;50.942;3.644;2023-06-26T07:21:07;101780.59;;;21.24;100.00
52949;BME280;38812;50.942;3.644;2023-06-26T07:23:32;101784.38;;;21.54;100.00
52949;BME280;38812;50.942;3.644;2023-06-26T07:25:57;101781.88;;;21.34;100.00
52949;BME280;38812;50.942;3.644;2023-06-26T07:28:23;101788.00;;;21.53;100.00
52949;BME280;38812;50.942;3.644;2023-06-26T07:30:49;101776.50;;;21.69;100.00
52949;BME280;38812;50.942;3.644;2023-06-26T07:33:14;101764.25;;;21.65;100.00
52949;BME280;38812;50.942;3.644;2023-06-26T07:35:39;101770.91;;;21.73;100.00
52949;BME280;38812;50.942;3.644;2023-06-26T07:38:05;101791.81;;;21.65;100.00
52949;BME280;38812;50.942;3.644;2023-06-26T07:40:30;101747.19;;;21.33;100.00
52949;BME280;38812;50.942;3.644;2023-06-26T07:42:55;101790.41;;;21.24;100.00
52949;BME280;38812;50.942;3.644;2023-06-26T07:45:23;101798.38;;;21.06;100.00
52949;BME280;38812;50.942;3.644;2023-06-26T07:47:48;101800.44;;;21.20;100.00
52949;BME280;38812;50.942;3.644;2023-06-26T07:50:14;101789.41;;;21.61;100.00
52949;BME280;38812;50.942;3.644;2023-06-26T07:52:44;101810.31;;;21.70;100.00
52949;BME280;38812;50.942;3.644;2023-06-26T07:55:10;101803.72;;;21.25;100.00
52949;BME280;38812;50.942;3.644;2023-06-26T07:57:35;101786.16;;;21.19;100.00
52949;BME280;38812;50.942;3.644;2023-06-26T08:00:01;101805.63;;;21.58;100.00
52949;BME280;38812;50.942;3.644;2023-06-26T08:02:26;101808.75;;;21.66;100.00
52949;BME280;38812;50.942;3.644;2023-06-26T08:04:51;101814.41;;;21.77;100.00
52949;BME280;38812;50.942;3.644;2023-06-26T08:07:17;101812.81;;;22.07;100.00
52949;BME280;38812;50.942;3.644;2023-06-26T08:09:43;101808.88;;;22.30;98.88
52949;BME280;38812;50.942;3.644;2023-06-26T08:12:09;101810.28;;;22.53;99.37
52949;BME280;38812;50.942;3.644;2023-06-26T08:14:34;101796.81;;;22.54;90.13
52949;BME280;38812;50.942;3.644;2023-06-26T08:17:00;101811.75;;;23.06;85.91
52949;BME280;38812;50.942;3.644;2023-06-26T08:19:25;101797.84;;;23.15;89.29
52949;BME280;38812;50.942;3.644;2023-06-26T08:21:50;101800.44;;;22.53;85.91
52949;BME280;38812;50.942;3.644;2023-06-26T08:24:16;101804.25;;;22.65;93.67
52949;BME280;38812;50.942;3.644;2023-06-26T08:26:44;101790.34;;;22.58;89.22
52949;BME280;38812;50.942;3.644;2023-06-26T08:29:10;101811.56;;;23.24;90.46
52949;BME280;38812;50.942;3.644;2023-06-26T08:31:35;101814.97;;;23.58;80.32
52949;BME280;38812;50.942;3.644;2023-06-26T08:34:02;101823.13;;;23.85;75.95
52949;BME280;38812;50.942;3.644;2023-06-26T08:36:28;101810.34;;;24.33;74.21
52949;BME280;38812;50.942;3.644;2023-06-26T08:38:53;101822.09;;;24.16;74.63
52949;BME280;38812;50.942;3.644;2023-06-26T08:41:19;101825.75;;;24.15;75.87
52949;BME280;38812;50.942;3.644;2023-06-26T08:43:44;101818.94;;;23.95;74.17
52949;BME280;38812;50.942;3.644;2023-06-26T08:46:10;101835.22;;;22.86;75.82
52949;BME280;38812;50.942;3.644;2023-06-26T08:48:38;101831.03;;;24.31;75.35
52949;BME280;38812;50.942;3.644;2023-06-26T08:51:12;101818.16;;;25.05;68.61
52949;BME280;38812;50.942;3.644;2023-06-26T08:54:11;101846.81;;;26.11;64.22
52949;BME280;38812;50.942;3.644;2023-06-26T08:56:42;101827.19;;;26.09;64.77
52949;BME280;38812;50.942;3.644;2023-06-26T08:59:08;101846.13;;;25.03;65.92
52949;BME280;38812;50.942;3.644;2023-06-26T09:01:36;101847.94;;;25.29;61.96
52949;BME280;38812;50.942;3.644;2023-06-26T09:04:01;101849.31;;;24.81;63.96
52949;BME280;38812;50.942;3.644;2023-06-26T09:06:27;101848.78;;;24.47;68.96
52949;BME280;38812;50.942;3.644;2023-06-26T09:08:53;101845.47;;;24.71;66.93
52949;BME280;38812;50.942;3.644;2023-06-26T09:11:18;101841.28;;;24.67;63.88
52949;BME280;38812;50.942;3.644;2023-06-26T09:13:44;101832.09;;;24.98;60.92
52949;BME280;38812;50.942;3.644;2023-06-26T09:16:09;101841.97;;;24.56;60.63
52949;BME280;38812;50.942;3.644;2023-06-26T09:18:35;101836.00;;;24.65;64.25
52949;BME280;38812;50.942;3.644;2023-06-26T09:21:06;101824.25;;;25.21;64.20
52949;BME280;38812;50.942;3.644;2023-06-26T09:23:32;101838.84;;;25.57;61.36
52949;BME280;38812;50.942;3.644;2023-06-26T09:25:57;101834.41;;;26.34;60.74
52949;BME280;38812;50.942;3.644;2023-06-26T09:28:23;101838.88;;;24.48;60.44
52949;BME280;38812;50.942;3.644;2023-06-26T09:30:48;101858.09;;;24.56;58.86
52949;BME280;38812;50.942;3.644;2023-06-26T09:33:19;101862.38;;;24.02;59.07
52949;BME280;38812;50.942;3.644;2023-06-26T09:35:46;101830.09;;;24.32;55.61
52949;BME280;38812;50.942;3.644;2023-06-26T09:38:12;101865.47;;;24.52;58.76
52949;BME280;38812;50.942;3.644;2023-06-26T09:40:39;101857.38;;;25.22;58.94
52949;BME280;38812;50.942;3.644;2023-06-26T09:43:05;101863.63;;;25.62;56.97
52949;BME280;38812;50.942;3.644;2023-06-26T09:45:32;101860.78;;;25.90;53.44
52949;BME280;38812;50.942;3.644;2023-06-26T09:48:01;101875.56;;;25.98;55.55
52949;BME280;38812;50.942;3.644;2023-06-26T09:50:30;101877.19;;;26.51;54.88
52949;BME280;38812;50.942;3.644;2023-06-26T09:53:07;101867.09;;;25.64;54.32
52949;BME280;38812;50.942;3.644;2023-06-26T09:55:34;101880.59;;;24.96;54.52
52949;BME280;38812;50.942;3.644;2023-06-26T09:58:02;101878.66;;;23.54;58.69
52949;BME280;38812;50.942;3.644;2023-06-26T10:00:28;101894.25;;;23.01;57.32
52949;BME280;38812;50.942;3.644;2023-06-26T10:02:53;101881.97;;;22.81;60.24
52949;BME280;38812;50.942;3.644;2023-06-26T10:05:19;101883.25;;;23.37;59.74
52949;BME280;38812;50.942;3.644;2023-06-26T10:07:45;101870.56;;;22.77;63.03
52949;BME280;38812;50.942;3.644;2023-06-26T10:10:12;101892.06;;;22.43;64.79
52949;BME280;38812;50.942;3.644;2023-06-26T10:12:37;101883.72;;;23.89;57.82
52949;BME280;38812;50.942;3.644;2023-06-26T10:15:03;101875.63;;;24.47;54.69
52949;BME280;38812;50.942;3.644;2023-06-26T10:17:33;101888.47;;;23.84;52.71
52949;BME280;38812;50.942;3.644;2023-06-26T10:20:02;101869.44;;;23.13;55.14
52949;BME280;38812;50.942;3.644;2023-06-26T10:22:30;101872.41;;;23.54;56.31
52949;BME280;38812;50.942;3.644;2023-06-26T10:24:59;101855.09;;;23.44;56.60
52949;BME280;38812;50.942;3.644;2023-06-26T10:27:29;101895.66;;;23.83;56.40
52949;BME280;38812;50.942;3.644;2023-06-26T10:30:00;101875.47;;;24.91;55.78
52949;BME280;38812;50.942;3.644;2023-06-26T10:32:26;101886.38;;;25.17;54.74
52949;BME280;38812;50.942;3.644;2023-06-26T10:34:53;101876.06;;;23.97;56.71
52949;BME280;38812;50.942;3.644;2023-06-26T10:37:20;101886.56;;;23.72;56.23
52949;BME280;38812;50.942;3.644;2023-06-26T10:42:11;101886.31;;;23.61;58.82
52949;BME280;38812;50.942;3.644;2023-06-26T10:44:41;101878.09;;;23.48;59.86
52949;BME280;38812;50.942;3.644;2023-06-26T10:47:07;101877.25;;;23.47;58.13
52949;BME280;38812;50.942;3.644;2023-06-26T10:49:36;101871.22;;;23.28;57.43
52949;BME280;38812;50.942;3.644;2023-06-26T10:52:02;101892.97;;;23.69;57.59
52949;BME280;38812;50.942;3.644;2023-06-26T10:54:34;101897.09;;;23.75;55.95
52949;BME280;38812;50.942;3.644;2023-06-26T10:57:01;101909.78;;;23.57;58.30
52949;BME280;38812;50.942;3.644;2023-06-26T10:59:28;101900.06;;;22.93;58.80
52949;BME280;38812;50.942;3.644;2023-06-26T11:01:59;101903.22;;;23.31;58.80
52949;BME280;38812;50.942;3.644;2023-06-26T11:04:44;101916.69;;;23.61;57.87
52949;BME280;38812;50.942;3.644;2023-06-26T11:07:20;101917.38;;;24.81;55.61
52949;BME280;38812;50.942;3.644;2023-06-26T11:12:53;101921.47;;;23.09;56.77
52949;BME280;38812;50.942;3.644;2023-06-26T11:15:19;101928.72;;;23.22;57.46
52949;BME280;38812;50.942;3.644;2023-06-26T11:17:45;101926.00;;;22.75;57.85
52949;BME280;38812;50.942;3.644;2023-06-26T11:20:13;101920.38;;;22.64;57.94
52949;BME280;38812;50.942;3.644;2023-06-26T11:22:41;101927.44;;;22.49;58.39
52949;BME280;38812;50.942;3.644;2023-06-26T11:25:08;101924.81;;;22.81;58.73
52949;BME280;38812;50.942;3.644;2023-06-26T11:30:02;101913.53;;;24.57;55.66
52949;BME280;38812;50.942;3.644;2023-06-26T11:32:27;101902.00;;;24.26;55.86
52949;BME280;38812;50.942;3.644;2023-06-26T11:34:54;101914.63;;;24.10;55.34
52949;BME280;38812;50.942;3.644;2023-06-26T11:37:21;101911.69;;;24.72;52.48
52949;BME280;38812;50.942;3.644;2023-06-26T11:39:47;101914.88;;;24.78;52.76
52949;BME280;38812;50.942;3.644;2023-06-26T11:42:12;101927.31;;;24.22;54.04
52949;BME280;38812;50.942;3.644;2023-06-26T11:44:44;101937.53;;;24.02;56.35
52949;BME280;38812;50.942;3.644;2023-06-26T11:47:14;101936.41;;;23.44;56.44
52949;BME280;38812;50.942;3.644;2023-06-26T11:49:45;101926.53;;;23.61;56.72
52949;BME280;38812;50.942;3.644;2023-06-26T11:52:11;101939.63;;;23.35;55.33
52949;BME280;38812;50.942;3.644;2023-06-26T11:54:36;101943.34;;;23.01;54.67
52949;BME280;38812;50.942;3.644;2023-06-26T11:57:03;101936.63;;;22.94;56.56
52949;BME280;38812;50.942;3.644;2023-06-26T11:59:36;101937.09;;;23.79;55.05
52949;BME280;38812;50.942;3.644;2023-06-26T12:02:08;101933.97;;;24.31;52.34
52949;BME280;38812;50.942;3.644;2023-06-26T12:04:37;101933.19;;;25.41;51.23
52949;BME280;38812;50.942;3.644;2023-06-26T12:07:04;101923.00;;;25.46;50.58
52949;BME280;38812;50.942;3.644;2023-06-26T12:09:32;101930.72;;;25.65;53.69
52949;BME280;38812;50.942;3.644;2023-06-26T12:12:00;101930.56;;;25.27;52.66
52949;BME280;38812;50.942;3.644;2023-06-26T12:14:26;101922.44;;;24.72;54.04
52949;BME280;38812;50.942;3.644;2023-06-26T12:16:54;101924.13;;;23.72;53.44
52949;BME280;38812;50.942;3.644;2023-06-26T12:19:25;101945.84;;;23.51;51.87
52949;BME280;38812;50.942;3.644;2023-06-26T12:21:53;101923.72;;;24.66;51.97
52949;BME280;38812;50.942;3.644;2023-06-26T12:24:22;101933.94;;;23.87;52.88
52949;BME280;38812;50.942;3.644;2023-06-26T12:26:53;101925.84;;;23.73;54.28
52949;BME280;38812;50.942;3.644;2023-06-26T12:29:21;101926.03;;;23.70;56.15
52949;BME280;38812;50.942;3.644;2023-06-26T12:31:53;101935.41;;;24.79;53.08
52949;BME280;38812;50.942;3.644;2023-06-26T12:34:20;101924.47;;;24.82;50.26
52949;BME280;38812;50.942;3.644;2023-06-26T12:36:50;101913.28;;;24.03;51.70
52949;BME280;38812;50.942;3.644;2023-06-26T12:39:18;101950.41;;;23.81;53.31
52949;BME280;38812;50.942;3.644;2023-06-26T12:42:04;101948.09;;;23.43;54.82
52949;BME280;38812;50.942;3.644;2023-06-26T12:44:30;101941.34;;;23.20;55.21
52949;BME280;38812;50.942;3.644;2023-06-26T12:47:02;101940.94;;;23.12;57.52
52949;BME280;38812;50.942;3.644;2023-06-26T12:49:35;101950.56;;;23.16;56.20
52949;BME280;38812;50.942;3.644;2023-06-26T12:52:05;101940.19;;;22.77;56.73
52949;BME280;38812;50.942;3.644;2023-06-26T12:54:31;101943.97;;;23.53;56.72
52949;BME280;38812;50.942;3.644;2023-06-26T12:56:57;101935.38;;;23.47;55.66